createdAt,value
2022-09-22T00:01:33.459Z,12.94
2022-09-22T00:04:03.784Z,12.91
2022-09-22T00:06:33.599Z,12.88
2022-09-22T00:09:04.437Z,12.85
2022-09-22T00:11:35.634Z,12.81
2022-09-22T00:14:05.518Z,12.78
2022-09-22T00:16:36.591Z,12.75
2022-09-22T00:19:06.739Z,12.74
2022-09-22T00:21:34.675Z,12.73
2022-09-22T00:24:07.089Z,12.72
2022-09-22T00:26:36.059Z,12.68
2022-09-22T00:29:04.115Z,12.63
2022-09-22T00:31:32.290Z,12.58
2022-09-22T00:34:00.186Z,12.56
2022-09-22T00:36:29.124Z,12.54
2022-09-22T00:38:58.463Z,12.53
2022-09-22T00:41:29.798Z,12.52
2022-09-22T00:44:34.054Z,12.51
2022-09-22T00:47:07.710Z,12.47
2022-09-22T00:49:43.210Z,12.43
2022-09-22T00:52:12.420Z,12.40
2022-09-22T00:54:40.580Z,12.37
2022-09-22T00:57:13.229Z,12.33
2022-09-22T00:59:43.142Z,12.29
2022-09-22T01:02:12.024Z,12.25
2022-09-22T01:04:40.068Z,12.24
2022-09-22T01:07:08.623Z,12.22
2022-09-22T01:09:36.999Z,12.20
2022-09-22T01:12:06.026Z,12.19
2022-09-22T01:14:55.935Z,12.18
2022-09-22T01:17:32.693Z,12.18
2022-09-22T01:20:43.781Z,12.20
2022-09-22T01:23:54.982Z,12.24
2022-09-22T01:26:42.939Z,12.26
2022-09-22T01:29:38.529Z,12.29
2022-09-22T01:32:17.228Z,12.36
2022-09-22T01:34:50.582Z,12.41
2022-09-22T01:37:25.421Z,12.43
2022-09-22T01:39:59.047Z,12.47
2022-09-22T01:42:31.865Z,12.49
2022-09-22T01:45:07.691Z,12.52
2022-09-22T01:47:41.784Z,12.52
2022-09-22T01:50:14.674Z,12.52
2022-09-22T01:52:44.032Z,12.51
2022-09-22T01:55:16.776Z,12.49
2022-09-22T01:57:50.730Z,12.49
2022-09-22T02:00:19.069Z,12.48
2022-09-22T02:02:53.637Z,12.48
2022-09-22T02:05:26.666Z,12.46
2022-09-22T02:07:57.676Z,12.45
2022-09-22T02:10:28.903Z,12.43
2022-09-22T02:12:56.827Z,12.42
2022-09-22T02:15:42.237Z,12.41
2022-09-22T02:18:15.947Z,12.39
2022-09-22T02:20:43.916Z,12.38
2022-09-22T02:23:11.849Z,12.35
2022-09-22T02:25:41.937Z,12.32
2022-09-22T02:28:11.843Z,12.31
2022-09-22T02:30:40.482Z,12.30
2022-09-22T02:33:09.008Z,12.28
2022-09-22T02:35:41.459Z,12.26
2022-09-22T02:38:14.631Z,12.26
2022-09-22T02:40:48.570Z,12.25
2022-09-22T02:43:24.705Z,12.25
2022-09-22T02:45:58.409Z,12.25
2022-09-22T02:48:30.368Z,12.25
2022-09-22T02:51:00.410Z,12.25
2022-09-22T02:53:28.531Z,12.25
2022-09-22T02:55:57.397Z,12.24
2022-09-22T02:58:25.376Z,12.23
2022-09-22T03:00:53.271Z,12.21
2022-09-22T03:03:21.193Z,12.20
2022-09-22T03:05:49.066Z,12.18
2022-09-22T03:08:18.407Z,12.17
2022-09-22T03:10:46.476Z,12.15
2022-09-22T03:13:17.181Z,12.14
2022-09-22T03:15:46.923Z,12.14
2022-09-22T03:18:16.996Z,12.12
2022-09-22T03:20:44.941Z,12.11
2022-09-22T03:23:12.871Z,12.10
2022-09-22T03:25:42.338Z,12.11
2022-09-22T03:28:10.667Z,12.10
2022-09-22T03:30:40.424Z,12.08
2022-09-22T03:33:08.422Z,12.07
2022-09-22T03:35:36.471Z,12.06
2022-09-22T03:38:04.641Z,12.06
2022-09-22T03:40:32.634Z,12.04
2022-09-22T03:43:01.973Z,12.02
2022-09-22T03:45:29.858Z,12.00
2022-09-22T03:47:59.068Z,11.94
2022-09-22T03:50:28.405Z,11.91
2022-09-22T03:52:56.329Z,11.88
2022-09-22T03:55:24.632Z,11.85
2022-09-22T03:57:52.603Z,11.83
2022-09-22T04:00:21.995Z,11.80
2022-09-22T04:02:50.101Z,11.78
2022-09-22T04:05:18.201Z,11.80
2022-09-22T04:07:46.163Z,11.79
2022-09-22T04:10:14.181Z,11.78
2022-09-22T04:12:42.218Z,11.77
2022-09-22T04:15:11.098Z,11.76
2022-09-22T04:17:40.444Z,11.74
2022-09-22T04:20:09.617Z,11.73
2022-09-22T04:22:37.627Z,11.72
2022-09-22T04:25:06.707Z,11.69
2022-09-22T04:27:34.592Z,11.68
2022-09-22T04:30:03.134Z,11.67
2022-09-22T04:32:31.057Z,11.67
2022-09-22T04:35:00.485Z,11.69
2022-09-22T04:37:28.431Z,11.67
2022-09-22T04:39:56.402Z,11.66
2022-09-22T04:42:24.344Z,11.66
2022-09-22T04:44:52.409Z,11.65
2022-09-22T04:47:20.391Z,11.65
2022-09-22T04:49:48.312Z,11.62
2022-09-22T04:52:17.754Z,11.61
2022-09-22T04:54:45.729Z,11.61
2022-09-22T04:57:16.079Z,11.60
2022-09-22T04:59:47.608Z,11.61
2022-09-22T05:02:15.538Z,11.61
2022-09-22T05:04:43.956Z,11.60
2022-09-22T05:07:11.824Z,11.61
2022-09-22T05:09:41.215Z,11.61
2022-09-22T05:12:09.230Z,11.61
2022-09-22T05:14:37.376Z,11.62
2022-09-22T05:17:05.323Z,11.61
2022-09-22T05:19:33.367Z,11.60
2022-09-22T05:22:01.727Z,11.60
2022-09-22T05:24:29.997Z,11.60
2022-09-22T05:26:59.918Z,11.61
2022-09-22T05:29:28.216Z,11.63
2022-09-22T05:31:56.568Z,11.64
2022-09-22T05:34:24.481Z,11.64
2022-09-22T05:36:52.454Z,11.65
2022-09-22T05:39:21.810Z,11.65
2022-09-22T05:41:50.201Z,11.66
2022-09-22T05:44:19.501Z,11.66
2022-09-22T05:46:47.402Z,11.68
2022-09-22T05:49:15.430Z,11.70
2022-09-22T05:51:43.554Z,11.71
2022-09-22T05:54:11.514Z,11.73
2022-09-22T05:56:39.450Z,11.74
2022-09-22T05:59:07.277Z,11.75
2022-09-22T06:01:38.466Z,11.76
2022-09-22T06:04:06.322Z,11.77
2022-09-22T06:06:34.277Z,11.78
2022-09-22T06:09:02.408Z,11.78
2022-09-22T06:11:30.420Z,11.78
2022-09-22T06:13:58.649Z,11.79
2022-09-22T06:16:26.771Z,11.79
2022-09-22T06:18:56.228Z,11.79
2022-09-22T06:21:25.939Z,11.79
2022-09-22T06:23:53.860Z,11.80
2022-09-22T06:26:21.735Z,11.81
2022-09-22T06:28:49.697Z,11.81
2022-09-22T06:31:17.791Z,11.80
2022-09-22T06:33:48.719Z,11.80
2022-09-22T06:36:24.101Z,11.82
2022-09-22T06:38:53.065Z,11.84
2022-09-22T06:41:21.640Z,11.85
2022-09-22T06:43:50.228Z,11.85
2022-09-22T06:46:19.598Z,11.85
2022-09-22T06:48:51.589Z,11.87
2022-09-22T06:51:21.004Z,11.89
2022-09-22T06:53:51.975Z,11.90
2022-09-22T06:56:20.749Z,11.92
2022-09-22T06:59:08.893Z,11.96
2022-09-22T07:01:37.828Z,11.99
2022-09-22T07:04:05.971Z,12.00
2022-09-22T07:06:37.228Z,12.03
2022-09-22T07:09:06.172Z,12.06
2022-09-22T07:11:39.539Z,12.09
2022-09-22T07:14:08.608Z,12.13
2022-09-22T07:16:37.575Z,12.19
2022-09-22T07:19:06.188Z,12.23
2022-09-22T07:21:37.885Z,12.28
2022-09-22T07:24:08.284Z,12.33
2022-09-22T07:26:38.448Z,12.38
2022-09-22T07:29:11.655Z,12.44
2022-09-22T07:31:40.525Z,12.51
2022-09-22T07:34:08.963Z,12.58
2022-09-22T07:36:40.159Z,12.67
2022-09-22T07:39:11.254Z,12.73
2022-09-22T07:41:43.231Z,12.80
2022-09-22T07:44:30.599Z,12.87
2022-09-22T07:46:58.963Z,12.96
2022-09-22T07:49:27.177Z,13.04
2022-09-22T07:51:57.575Z,13.12
2022-09-22T07:54:27.253Z,13.19
2022-09-22T07:56:58.723Z,13.25
2022-09-22T07:59:27.559Z,13.30
2022-09-22T08:01:55.770Z,13.33
2022-09-22T08:04:26.376Z,13.35
2022-09-22T08:06:57.067Z,13.37
2022-09-22T08:09:25.980Z,13.38
2022-09-22T08:11:53.912Z,13.39
2022-09-22T08:14:23.530Z,13.44
2022-09-22T08:16:53.451Z,13.49
2022-09-22T08:19:24.023Z,13.54
2022-09-22T08:21:54.200Z,13.62
2022-09-22T08:24:24.226Z,13.69
2022-09-22T08:26:54.205Z,13.75
2022-09-22T08:29:22.725Z,13.79
2022-09-22T08:31:51.571Z,13.84
2022-09-22T08:34:20.225Z,13.87
2022-09-22T08:36:48.817Z,13.92
2022-09-22T08:39:18.297Z,13.94
2022-09-22T08:42:01.169Z,13.98
2022-09-22T08:44:33.011Z,14.05
2022-09-22T08:47:03.170Z,14.12
2022-09-22T08:49:54.527Z,14.18
2022-09-22T08:52:29.169Z,14.26
2022-09-22T08:54:59.629Z,14.32
2022-09-22T08:57:42.700Z,14.38
2022-09-22T09:00:14.836Z,14.43
2022-09-22T09:02:46.656Z,14.48
2022-09-22T09:05:49.402Z,14.57
2022-09-22T09:08:50.209Z,14.67
2022-09-22T09:11:27.519Z,14.75
2022-09-22T09:14:13.726Z,14.84
2022-09-22T09:16:48.196Z,14.98
2022-09-22T09:19:20.137Z,15.13
2022-09-22T09:21:52.848Z,15.32
2022-09-22T09:27:25.820Z,15.74
2022-09-22T09:30:02.671Z,15.88
2022-09-22T09:32:43.960Z,16.03
2022-09-22T09:35:15.644Z,16.18
2022-09-22T09:37:46.198Z,16.34
2022-09-22T09:40:17.280Z,16.42
2022-09-22T09:42:47.493Z,16.44
2022-09-22T09:45:19.534Z,16.47
2022-09-22T09:48:12.417Z,16.52
2022-09-22T09:50:40.544Z,16.56
2022-09-22T09:53:31.922Z,16.61
2022-09-22T09:55:59.992Z,16.65
2022-09-22T09:58:45.483Z,16.66
2022-09-22T10:01:16.207Z,16.69
2022-09-22T10:03:48.318Z,16.74
2022-09-22T10:06:25.424Z,16.82
2022-09-22T10:08:53.865Z,16.91
2022-09-22T10:11:33.719Z,17.02
2022-09-22T10:14:02.206Z,17.13
2022-09-22T10:16:36.064Z,17.22
2022-09-22T10:19:19.300Z,17.35
2022-09-22T10:21:47.353Z,17.44
2022-09-22T10:24:28.041Z,17.49
2022-09-22T10:26:57.461Z,17.55
2022-09-22T10:29:27.848Z,17.58
2022-09-22T10:32:13.344Z,17.59
2022-09-22T10:37:14.209Z,17.62
2022-09-22T10:39:45.953Z,17.57
2022-09-22T10:42:25.842Z,17.57
2022-09-22T10:44:57.347Z,17.54
2022-09-22T10:47:34.369Z,17.51
2022-09-22T10:50:29.038Z,17.43
2022-09-22T10:53:03.457Z,17.44
2022-09-22T10:55:35.361Z,17.52
2022-09-22T10:58:27.453Z,17.57
2022-09-22T11:01:10.576Z,17.60
2022-09-22T11:04:02.418Z,17.65
2022-09-22T11:07:20.240Z,17.65
2022-09-22T11:10:14.896Z,17.73
2022-09-22T11:12:52.562Z,17.80
2022-09-22T11:15:35.896Z,17.81
2022-09-22T11:18:39.535Z,17.91
2022-09-22T11:21:19.127Z,17.94
2022-09-22T11:24:18.930Z,18.03
2022-09-22T11:26:53.521Z,18.11
2022-09-22T11:29:58.282Z,18.19
2022-09-22T11:32:45.421Z,18.23
2022-09-22T11:35:51.672Z,18.44
2022-09-22T11:38:32.649Z,18.56
2022-09-22T11:41:21.587Z,18.66
2022-09-22T11:44:14.960Z,18.71
2022-09-22T11:47:01.853Z,18.76
2022-09-22T11:49:43.544Z,18.86
2022-09-22T11:52:23.303Z,18.88
2022-09-22T11:55:04.450Z,19.02
2022-09-22T11:57:38.777Z,19.11
2022-09-22T12:00:13.136Z,19.14
2022-09-22T12:02:46.649Z,19.28
2022-09-22T12:05:20.648Z,19.37
2022-09-22T12:07:55.730Z,19.41
2022-09-22T12:10:34.290Z,19.51
2022-09-22T12:13:03.274Z,19.51
2022-09-22T12:15:36.013Z,19.51
2022-09-22T12:18:11.009Z,19.57
2022-09-22T12:20:55.857Z,19.57
2022-09-22T12:23:40.292Z,19.44
2022-09-22T12:26:12.255Z,19.46
2022-09-22T12:28:43.329Z,19.42
2022-09-22T12:31:14.268Z,19.40
2022-09-22T12:33:48.589Z,19.42
2022-09-22T12:36:18.982Z,19.30
2022-09-22T12:38:47.607Z,19.15
2022-09-22T12:41:21.400Z,19.09
2022-09-22T12:43:49.388Z,19.05
2022-09-22T12:46:27.918Z,19.08
2022-09-22T12:48:56.160Z,19.14
2022-09-22T12:51:33.296Z,19.11
2022-09-22T12:54:45.818Z,19.07
2022-09-22T12:57:28.475Z,19.00
2022-09-22T13:00:12.827Z,18.94
2022-09-22T13:02:47.320Z,18.84
2022-09-22T13:05:46.538Z,18.72
2022-09-22T13:08:23.041Z,18.62
2022-09-22T13:10:57.017Z,18.58
2022-09-22T13:13:40.702Z,18.50
2022-09-22T13:16:36.633Z,18.40
2022-09-22T13:19:10.981Z,18.32
2022-09-22T13:21:41.741Z,18.23
2022-09-22T13:24:25.012Z,18.27
2022-09-22T13:27:05.824Z,18.31
2022-09-22T13:29:36.508Z,18.34
2022-09-22T13:32:26.702Z,18.36
2022-09-22T13:34:54.747Z,18.34
2022-09-22T13:37:25.896Z,18.38
2022-09-22T13:39:55.708Z,18.39
2022-09-22T13:42:32.456Z,18.44
2022-09-22T13:45:06.410Z,18.56
2022-09-22T13:47:35.252Z,18.58
2022-09-22T13:50:05.861Z,18.61
2022-09-22T13:52:38.465Z,18.59
2022-09-22T13:55:10.943Z,18.54
2022-09-22T13:57:40.079Z,18.56
2022-09-22T14:00:24.478Z,18.53
2022-09-22T14:02:52.976Z,18.55
2022-09-22T14:05:25.224Z,18.54
2022-09-22T14:08:11.202Z,18.47
2022-09-22T14:10:43.532Z,18.44
2022-09-22T14:13:39.153Z,18.44
2022-09-22T14:16:13.211Z,18.53
2022-09-22T14:18:45.319Z,18.60
2022-09-22T14:21:13.982Z,18.61
2022-09-22T14:23:47.995Z,18.63
2022-09-22T14:26:28.299Z,18.62
2022-09-22T14:28:59.663Z,18.71
2022-09-22T14:31:33.361Z,18.80
2022-09-22T14:34:03.674Z,18.90
2022-09-22T14:36:31.700Z,18.95
2022-09-22T14:39:10.189Z,19.00
2022-09-22T14:41:39.631Z,18.97
2022-09-22T14:44:26.654Z,18.83
2022-09-22T14:46:57.677Z,18.80
2022-09-22T14:49:42.377Z,18.74
2022-09-22T14:52:25.163Z,18.72
2022-09-22T14:54:54.726Z,18.70
2022-09-22T14:57:22.956Z,18.95
2022-09-22T15:00:13.675Z,19.25
2022-09-22T15:02:47.430Z,19.44
2022-09-22T15:05:29.578Z,19.49
2022-09-22T15:07:58.733Z,19.50
2022-09-22T15:10:28.932Z,19.48
2022-09-22T15:13:18.361Z,19.32
2022-09-22T15:15:47.670Z,19.17
2022-09-22T15:18:19.285Z,19.03
2022-09-22T15:20:50.059Z,18.86
2022-09-22T15:23:21.881Z,18.75
2022-09-22T15:25:51.853Z,18.66
2022-09-22T15:28:23.055Z,18.57
2022-09-22T15:30:52.157Z,18.50
2022-09-22T15:33:22.620Z,18.38
2022-09-22T15:35:56.458Z,18.32
2022-09-22T15:38:27.518Z,18.24
2022-09-22T15:40:55.496Z,18.21
2022-09-22T15:43:24.665Z,18.21
2022-09-22T15:45:56.754Z,18.22
2022-09-22T15:48:31.602Z,18.23
2022-09-22T15:51:04.508Z,18.25
2022-09-22T15:53:33.868Z,18.25
2022-09-22T15:56:04.965Z,18.26
2022-09-22T15:58:36.155Z,18.28
2022-09-22T16:01:05.808Z,18.25
2022-09-22T16:03:40.952Z,18.20
2022-09-22T16:06:13.215Z,18.16
2022-09-22T16:08:43.882Z,18.11
2022-09-22T16:11:14.597Z,18.03
2022-09-22T16:13:42.862Z,17.98
2022-09-22T16:16:12.748Z,17.94
2022-09-22T16:18:44.019Z,17.85
2022-09-22T16:21:19.830Z,17.76
2022-09-22T16:23:47.702Z,17.70
2022-09-22T16:26:15.894Z,17.64
2022-09-22T16:28:43.837Z,17.62
2022-09-22T16:31:11.945Z,17.59
2022-09-22T16:33:41.621Z,17.57
2022-09-22T16:36:09.565Z,17.53
2022-09-22T16:38:39.461Z,17.48
2022-09-22T16:41:09.441Z,17.42
2022-09-22T16:43:37.410Z,17.26
2022-09-22T16:46:23.008Z,17.16
2022-09-22T16:48:53.529Z,17.09
2022-09-22T16:51:35.200Z,17.00
2022-09-22T16:54:19.570Z,16.91
2022-09-22T16:56:48.875Z,16.84
2022-09-22T16:59:18.663Z,16.80
2022-09-22T17:01:47.124Z,16.78
2022-09-22T17:04:18.582Z,16.72
2022-09-22T17:06:47.309Z,16.71
2022-09-22T17:09:16.629Z,16.65
2022-09-22T17:11:46.656Z,16.62
2022-09-22T17:14:16.145Z,16.58
2022-09-22T17:16:45.361Z,16.55
2022-09-22T17:19:16.118Z,16.51
2022-09-22T17:21:46.568Z,16.47
2022-09-22T17:24:15.453Z,16.45
2022-09-22T17:26:47.307Z,16.43
2022-09-22T17:29:16.985Z,16.42
2022-09-22T17:31:48.001Z,16.43
2022-09-22T17:34:17.171Z,16.41
2022-09-22T17:36:46.495Z,16.44
2022-09-22T17:39:14.536Z,16.44
2022-09-22T17:41:46.753Z,16.45
2022-09-22T17:44:20.890Z,16.45
2022-09-22T17:47:07.024Z,16.46
2022-09-22T17:49:52.643Z,16.47
2022-09-22T17:52:39.585Z,16.47
2022-09-22T17:55:12.002Z,16.48
2022-09-22T17:57:41.772Z,16.48
2022-09-22T18:00:12.395Z,16.47
2022-09-22T18:02:40.729Z,16.48
2022-09-22T18:05:11.674Z,16.48
2022-09-22T18:07:41.129Z,16.46
2022-09-22T18:10:10.521Z,16.46
2022-09-22T18:12:38.385Z,16.46
2022-09-22T18:15:07.872Z,16.46
2022-09-22T18:17:41.324Z,16.46
2022-09-22T18:20:11.557Z,16.46
2022-09-22T18:22:41.874Z,16.46
2022-09-22T18:25:10.524Z,16.47
2022-09-22T18:27:40.077Z,16.48
2022-09-22T18:30:08.837Z,16.49
2022-09-22T18:32:36.766Z,16.47
2022-09-22T18:35:05.808Z,16.46
2022-09-22T18:37:34.171Z,16.44
2022-09-22T18:40:03.667Z,16.43
2022-09-22T18:42:32.498Z,16.42
2022-09-22T18:45:00.415Z,16.41
2022-09-22T18:47:28.312Z,16.40
2022-09-22T18:49:56.938Z,16.42
2022-09-22T18:52:25.603Z,16.42
2022-09-22T18:54:54.868Z,16.42
2022-09-22T18:57:25.744Z,16.39
2022-09-22T18:59:57.553Z,16.39
2022-09-22T19:02:25.698Z,16.38
2022-09-22T19:04:53.748Z,16.37
2022-09-22T19:07:44.156Z,16.36
2022-09-22T19:10:13.737Z,16.35
2022-09-22T19:12:43.573Z,16.34
2022-09-22T19:15:15.178Z,16.34
2022-09-22T19:17:44.825Z,16.34
2022-09-22T19:20:14.806Z,16.31
2022-09-22T19:22:43.105Z,16.30
2022-09-22T19:25:11.168Z,16.28
2022-09-22T19:27:39.805Z,16.25
2022-09-22T19:30:10.245Z,16.23
2022-09-22T19:32:38.802Z,16.22
2022-09-22T19:35:08.577Z,16.22
2022-09-22T19:37:37.178Z,16.22
2022-09-22T19:40:05.694Z,16.21
2022-09-22T19:42:40.112Z,16.22
2022-09-22T19:45:10.527Z,16.23
2022-09-22T19:47:40.659Z,16.24
2022-09-22T19:50:09.425Z,16.24
2022-09-22T19:52:37.778Z,16.24
2022-09-22T19:55:07.519Z,16.25
2022-09-22T19:57:41.194Z,16.25
2022-09-22T20:00:11.904Z,16.26
2022-09-22T20:02:40.070Z,16.27
2022-09-22T20:05:20.986Z,16.27
2022-09-22T20:07:48.920Z,16.28
2022-09-22T20:10:17.391Z,16.29
2022-09-22T20:12:45.323Z,16.29
2022-09-22T20:15:15.889Z,16.29
2022-09-22T20:17:46.281Z,16.30
2022-09-22T20:20:15.755Z,16.30
2022-09-22T20:22:44.302Z,16.30
2022-09-22T20:25:22.727Z,16.32
2022-09-22T20:27:50.605Z,16.30
2022-09-22T20:30:20.520Z,16.32
2022-09-22T20:32:49.003Z,16.31
2022-09-22T20:35:19.042Z,16.30
2022-09-22T20:37:47.136Z,16.30
2022-09-22T20:40:18.678Z,16.30
2022-09-22T20:42:46.748Z,16.29
2022-09-22T20:45:14.783Z,16.28
2022-09-22T20:47:44.248Z,16.25
2022-09-22T20:50:12.704Z,16.24
2022-09-22T20:52:41.197Z,16.23
2022-09-22T20:55:10.338Z,16.24
2022-09-22T20:57:39.051Z,16.22
2022-09-22T21:00:08.471Z,16.21
2022-09-22T21:02:36.558Z,16.20
2022-09-22T21:05:06.501Z,16.18
2022-09-22T21:07:34.633Z,16.16
2022-09-22T21:10:19.720Z,16.15
2022-09-22T21:12:47.594Z,16.13
2022-09-22T21:15:15.645Z,16.15
2022-09-22T21:17:44.219Z,16.14
2022-09-22T21:20:13.596Z,16.12
2022-09-22T21:22:44.458Z,16.14
2022-09-22T21:25:12.388Z,16.13
2022-09-22T21:27:40.301Z,16.14
2022-09-22T21:30:09.232Z,16.14
2022-09-22T21:32:37.796Z,16.14
2022-09-22T21:35:06.802Z,16.16
2022-09-22T21:37:36.083Z,16.16
2022-09-22T21:40:04.197Z,16.16
2022-09-22T21:42:32.279Z,16.17
2022-09-22T21:45:00.248Z,16.16
2022-09-22T21:47:28.104Z,16.17
2022-09-22T21:49:55.976Z,16.15
2022-09-22T21:52:23.862Z,16.13
2022-09-22T21:54:53.111Z,16.13
2022-09-22T21:57:21.021Z,16.14
2022-09-22T21:59:48.912Z,16.14
2022-09-22T22:02:16.800Z,16.16
2022-09-22T22:04:46.535Z,16.15
2022-09-22T22:07:15.510Z,16.16
2022-09-22T22:09:43.414Z,16.17
2022-09-22T22:12:13.357Z,16.16
2022-09-22T22:14:41.212Z,16.18
2022-09-22T22:17:09.064Z,16.20
2022-09-22T22:19:36.949Z,16.22
2022-09-22T22:22:05.301Z,16.24
2022-09-22T22:24:39.608Z,16.26
2022-09-22T22:27:09.751Z,16.27
2022-09-22T22:29:39.657Z,16.28
2022-09-22T22:32:09.292Z,16.28
2022-09-22T22:34:37.850Z,16.29
2022-09-22T22:37:09.642Z,16.28
2022-09-22T22:39:37.823Z,16.29
2022-09-22T22:42:06.512Z,16.30
2022-09-22T22:44:35.203Z,16.29
2022-09-22T22:47:05.255Z,16.29
2022-09-22T22:49:33.611Z,16.29
2022-09-22T22:52:01.552Z,16.28
2022-09-22T22:54:29.441Z,16.25
2022-09-22T22:56:57.344Z,16.20
2022-09-22T22:59:25.317Z,16.14
2022-09-22T23:01:53.686Z,16.08
2022-09-22T23:04:23.060Z,16.02
2022-09-22T23:06:51.733Z,15.98
2022-09-22T23:09:19.604Z,15.96
2022-09-22T23:11:47.604Z,15.96
2022-09-22T23:14:16.372Z,15.99
2022-09-22T23:16:46.468Z,16.01
2022-09-22T23:19:16.154Z,16.03
2022-09-22T23:21:46.096Z,16.03
2022-09-22T23:24:16.446Z,16.01
2022-09-22T23:26:44.691Z,15.99
2022-09-22T23:29:12.775Z,15.98
2022-09-22T23:31:40.787Z,15.98
2022-09-22T23:34:08.692Z,15.95
2022-09-22T23:36:36.623Z,15.92
2022-09-22T23:39:06.083Z,15.92
2022-09-22T23:41:35.773Z,15.89
2022-09-22T23:44:05.834Z,15.86
2022-09-22T23:46:34.008Z,15.82
2022-09-22T23:49:02.343Z,15.80
2022-09-22T23:51:30.302Z,15.79
2022-09-22T23:53:58.659Z,15.79
2022-09-22T23:56:28.008Z,15.79
2022-09-22T23:58:55.956Z,15.75
